sensor_id;sensor_type;location;lat;lon;timestamp;temperature;humidity
18658;DHT22;9458;50.942;5.074;2024-02-04T00:02:00;10.30;99.90
18658;DHT22;9458;50.942;5.074;2024-02-04T00:04:29;10.40;99.90
18658;DHT22;9458;50.942;5.074;2024-02-04T00:06:57;10.40;99.90
18658;DHT22;9458;50.942;5.074;2024-02-04T00:09:24;10.40;99.90
18658;DHT22;9458;50.942;5.074;2024-02-04T00:11:53;10.40;99.90
18658;DHT22;9458;50.942;5.074;2024-02-04T00:14:20;10.50;99.90
18658;DHT22;9458;50.942;5.074;2024-02-04T00:16:47;10.40;99.90
18658;DHT22;9458;50.942;5.074;2024-02-04T00:19:14;10.40;99.90
18658;DHT22;9458;50.942;5.074;2024-02-04T00:21:43;10.40;99.90
18658;DHT22;9458;50.942;5.074;2024-02-04T00:24:10;10.40;99.90
18658;DHT22;9458;50.942;5.074;2024-02-04T00:26:37;10.40;99.90
18658;DHT22;9458;50.942;5.074;2024-02-04T00:29:04;10.40;99.90
18658;DHT22;9458;50.942;5.074;2024-02-04T00:31:31;10.40;99.90
18658;DHT22;9458;50.942;5.074;2024-02-04T00:33:57;10.40;99.90
18658;DHT22;9458;50.942;5.074;2024-02-04T00:36:24;10.40;99.90
18658;DHT22;9458;50.942;5.074;2024-02-04T00:38:53;10.50;99.90
18658;DHT22;9458;50.942;5.074;2024-02-04T00:41:20;10.40;99.90
18658;DHT22;9458;50.942;5.074;2024-02-04T00:43:47;10.40;99.90
18658;DHT22;9458;50.942;5.074;2024-02-04T00:46:14;10.40;99.90
18658;DHT22;9458;50.942;5.074;2024-02-04T00:48:41;10.40;99.90
18658;DHT22;9458;50.942;5.074;2024-02-04T00:51:07;10.40;99.90
18658;DHT22;9458;50.942;5.074;2024-02-04T00:53:34;10.40;99.90
18658;DHT22;9458;50.942;5.074;2024-02-04T00:56:04;10.40;99.90
18658;DHT22;9458;50.942;5.074;2024-02-04T00:58:31;10.40;99.90
18658;DHT22;9458;50.942;5.074;2024-02-04T01:00:58;10.50;99.90
18658;DHT22;9458;50.942;5.074;2024-02-04T01:03:26;10.40;99.90
18658;DHT22;9458;50.942;5.074;2024-02-04T01:05:52;10.40;99.90
18658;DHT22;9458;50.942;5.074;2024-02-04T01:08:21;10.50;99.90
18658;DHT22;9458;50.942;5.074;2024-02-04T01:10:48;10.40;99.90
18658;DHT22;9458;50.942;5.074;2024-02-04T01:13:17;10.50;99.90
18658;DHT22;9458;50.942;5.074;2024-02-04T01:15:44;10.40;99.90
18658;DHT22;9458;50.942;5.074;2024-02-04T01:18:11;10.40;99.90
18658;DHT22;9458;50.942;5.074;2024-02-04T01:20:38;10.50;99.90
18658;DHT22;9458;50.942;5.074;2024-02-04T01:23:05;10.50;99.90
18658;DHT22;9458;50.942;5.074;2024-02-04T01:25:35;10.50;99.90
18658;DHT22;9458;50.942;5.074;2024-02-04T01:28:02;10.50;99.90
18658;DHT22;9458;50.942;5.074;2024-02-04T01:30:31;10.40;99.90
18658;DHT22;9458;50.942;5.074;2024-02-04T01:32:58;10.40;99.90
18658;DHT22;9458;50.942;5.074;2024-02-04T01:35:24;10.50;99.90
18658;DHT22;9458;50.942;5.074;2024-02-04T01:37:51;10.40;99.90
18658;DHT22;9458;50.942;5.074;2024-02-04T01:40:18;10.40;99.90
18658;DHT22;9458;50.942;5.074;2024-02-04T01:42:45;10.40;99.90
18658;DHT22;9458;50.942;5.074;2024-02-04T01:45:12;10.50;99.90
18658;DHT22;9458;50.942;5.074;2024-02-04T01:47:41;10.50;99.90
18658;DHT22;9458;50.942;5.074;2024-02-04T01:50:08;10.50;99.90
18658;DHT22;9458;50.942;5.074;2024-02-04T01:52:36;10.50;99.90
18658;DHT22;9458;50.942;5.074;2024-02-04T01:55:04;10.50;99.90
18658;DHT22;9458;50.942;5.074;2024-02-04T01:57:31;10.60;99.90
18658;DHT22;9458;50.942;5.074;2024-02-04T02:00:00;10.60;99.90
18658;DHT22;9458;50.942;5.074;2024-02-04T02:02:28;10.50;99.90
18658;DHT22;9458;50.942;5.074;2024-02-04T02:04:57;10.50;99.90
18658;DHT22;9458;50.942;5.074;2024-02-04T02:07:24;10.50;99.90
18658;DHT22;9458;50.942;5.074;2024-02-04T02:09:52;10.50;99.90
18658;DHT22;9458;50.942;5.074;2024-02-04T02:12:21;10.50;99.90
18658;DHT22;9458;50.942;5.074;2024-02-04T02:14:50;10.50;99.90
18658;DHT22;9458;50.942;5.074;2024-02-04T02:17:27;10.50;99.90
18658;DHT22;9458;50.942;5.074;2024-02-04T02:19:59;10.50;99.90
18658;DHT22;9458;50.942;5.074;2024-02-04T02:22:30;10.50;99.90
18658;DHT22;9458;50.942;5.074;2024-02-04T02:25:04;10.60;99.90
18658;DHT22;9458;50.942;5.074;2024-02-04T02:27:31;10.60;99.90
18658;DHT22;9458;50.942;5.074;2024-02-04T02:29:58;10.60;99.90
18658;DHT22;9458;50.942;5.074;2024-02-04T02:32:25;10.60;99.90
18658;DHT22;9458;50.942;5.074;2024-02-04T02:34:52;10.50;99.90
18658;DHT22;9458;50.942;5.074;2024-02-04T02:37:22;10.60;99.90
18658;DHT22;9458;50.942;5.074;2024-02-04T02:39:55;10.50;99.90
18658;DHT22;9458;50.942;5.074;2024-02-04T02:42:25;10.60;99.90
18658;DHT22;9458;50.942;5.074;2024-02-04T02:44:53;10.60;99.90
18658;DHT22;9458;50.942;5.074;2024-02-04T02:47:20;10.60;99.90
18658;DHT22;9458;50.942;5.074;2024-02-04T02:49:47;10.60;99.90
18658;DHT22;9458;50.942;5.074;2024-02-04T02:52:14;10.60;99.90
18658;DHT22;9458;50.942;5.074;2024-02-04T02:54:41;10.60;99.90
18658;DHT22;9458;50.942;5.074;2024-02-04T02:57:08;10.50;99.90
18658;DHT22;9458;50.942;5.074;2024-02-04T02:59:36;10.60;99.90
18658;DHT22;9458;50.942;5.074;2024-02-04T03:02:02;10.60;99.90
18658;DHT22;9458;50.942;5.074;2024-02-04T03:04:29;10.60;99.90
18658;DHT22;9458;50.942;5.074;2024-02-04T03:06:56;10.60;99.90
18658;DHT22;9458;50.942;5.074;2024-02-04T03:09:23;10.70;99.90
18658;DHT22;9458;50.942;5.074;2024-02-04T03:11:50;10.60;99.90
18658;DHT22;9458;50.942;5.074;2024-02-04T03:14:17;10.70;99.90
18658;DHT22;9458;50.942;5.074;2024-02-04T03:16:46;10.70;99.90
18658;DHT22;9458;50.942;5.074;2024-02-04T03:19:13;10.60;99.90
18658;DHT22;9458;50.942;5.074;2024-02-04T03:21:39;10.60;99.90
18658;DHT22;9458;50.942;5.074;2024-02-04T03:24:06;10.60;99.90
18658;DHT22;9458;50.942;5.074;2024-02-04T03:26:33;10.60;99.90
18658;DHT22;9458;50.942;5.074;2024-02-04T03:29:00;10.60;99.90
18658;DHT22;9458;50.942;5.074;2024-02-04T03:31:30;10.70;99.90
18658;DHT22;9458;50.942;5.074;2024-02-04T03:33:59;10.70;99.90
18658;DHT22;9458;50.942;5.074;2024-02-04T03:36:27;10.70;99.90
18658;DHT22;9458;50.942;5.074;2024-02-04T03:38:54;10.70;99.90
18658;DHT22;9458;50.942;5.074;2024-02-04T03:41:21;10.70;99.90
18658;DHT22;9458;50.942;5.074;2024-02-04T03:43:48;10.70;99.90
18658;DHT22;9458;50.942;5.074;2024-02-04T03:46:14;10.80;99.90
18658;DHT22;9458;50.942;5.074;2024-02-04T03:48:41;10.70;99.90
18658;DHT22;9458;50.942;5.074;2024-02-04T03:51:14;10.70;99.90
18658;DHT22;9458;50.942;5.074;2024-02-04T03:53:41;10.70;99.90
18658;DHT22;9458;50.942;5.074;2024-02-04T03:56:07;10.70;99.90
18658;DHT22;9458;50.942;5.074;2024-02-04T03:58:34;10.70;99.90
18658;DHT22;9458;50.942;5.074;2024-02-04T04:01:01;10.70;99.90
18658;DHT22;9458;50.942;5.074;2024-02-04T04:03:28;10.70;99.90
18658;DHT22;9458;50.942;5.074;2024-02-04T04:05:55;10.70;99.90
18658;DHT22;9458;50.942;5.074;2024-02-04T04:08:24;10.70;99.90
18658;DHT22;9458;50.942;5.074;2024-02-04T04:10:50;10.70;99.90
18658;DHT22;9458;50.942;5.074;2024-02-04T04:13:17;10.80;99.90
18658;DHT22;9458;50.942;5.074;2024-02-04T04:15:44;10.70;99.90
18658;DHT22;9458;50.942;5.074;2024-02-04T04:18:11;10.80;99.90
18658;DHT22;9458;50.942;5.074;2024-02-04T04:20:38;10.70;99.90
18658;DHT22;9458;50.942;5.074;2024-02-04T04:23:05;10.70;99.90
18658;DHT22;9458;50.942;5.074;2024-02-04T04:25:34;10.60;99.90
18658;DHT22;9458;50.942;5.074;2024-02-04T04:28:00;10.70;99.90
18658;DHT22;9458;50.942;5.074;2024-02-04T04:30:27;10.70;99.90
18658;DHT22;9458;50.942;5.074;2024-02-04T04:32:54;10.70;99.90
18658;DHT22;9458;50.942;5.074;2024-02-04T04:35:21;10.70;99.90
18658;DHT22;9458;50.942;5.074;2024-02-04T04:37:48;10.70;99.90
18658;DHT22;9458;50.942;5.074;2024-02-04T04:40:15;10.70;99.90
18658;DHT22;9458;50.942;5.074;2024-02-04T04:42:43;10.70;99.90
18658;DHT22;9458;50.942;5.074;2024-02-04T04:45:10;10.70;99.90
18658;DHT22;9458;50.942;5.074;2024-02-04T04:47:37;10.70;99.90
18658;DHT22;9458;50.942;5.074;2024-02-04T04:50:05;10.70;99.90
18658;DHT22;9458;50.942;5.074;2024-02-04T04:52:32;10.70;99.90
18658;DHT22;9458;50.942;5.074;2024-02-04T04:54:59;10.70;99.90
18658;DHT22;9458;50.942;5.074;2024-02-04T04:57:25;10.70;99.90
18658;DHT22;9458;50.942;5.074;2024-02-04T04:59:54;10.70;99.90
18658;DHT22;9458;50.942;5.074;2024-02-04T05:02:21;10.70;99.90
18658;DHT22;9458;50.942;5.074;2024-02-04T05:04:48;10.70;99.90
18658;DHT22;9458;50.942;5.074;2024-02-04T05:07:14;10.70;99.90
18658;DHT22;9458;50.942;5.074;2024-02-04T05:09:41;10.70;99.90
18658;DHT22;9458;50.942;5.074;2024-02-04T05:12:11;10.70;99.90
18658;DHT22;9458;50.942;5.074;2024-02-04T05:14:38;10.70;99.90
18658;DHT22;9458;50.942;5.074;2024-02-04T05:17:07;10.70;99.90
18658;DHT22;9458;50.942;5.074;2024-02-04T05:19:34;10.70;99.90
18658;DHT22;9458;50.942;5.074;2024-02-04T05:22:02;10.70;99.90
18658;DHT22;9458;50.942;5.074;2024-02-04T05:24:29;10.70;99.90
18658;DHT22;9458;50.942;5.074;2024-02-04T05:26:57;10.70;99.90
18658;DHT22;9458;50.942;5.074;2024-02-04T05:29:24;10.70;99.90
18658;DHT22;9458;50.942;5.074;2024-02-04T05:31:51;10.60;99.90
18658;DHT22;9458;50.942;5.074;2024-02-04T05:34:19;10.70;99.90
18658;DHT22;9458;50.942;5.074;2024-02-04T05:36:46;10.70;99.90
18658;DHT22;9458;50.942;5.074;2024-02-04T05:39:14;10.70;99.90
18658;DHT22;9458;50.942;5.074;2024-02-04T05:41:42;10.60;99.90
18658;DHT22;9458;50.942;5.074;2024-02-04T05:44:09;10.70;99.90
18658;DHT22;9458;50.942;5.074;2024-02-04T05:46:36;10.60;99.90
18658;DHT22;9458;50.942;5.074;2024-02-04T05:49:03;10.60;99.90
18658;DHT22;9458;50.942;5.074;2024-02-04T05:51:32;10.60;99.90
18658;DHT22;9458;50.942;5.074;2024-02-04T05:53:59;10.60;99.90
18658;DHT22;9458;50.942;5.074;2024-02-04T05:56:26;10.60;99.90
18658;DHT22;9458;50.942;5.074;2024-02-04T05:58:53;10.60;99.90
18658;DHT22;9458;50.942;5.074;2024-02-04T06:01:20;10.60;99.90
18658;DHT22;9458;50.942;5.074;2024-02-04T06:03:47;10.60;99.90
18658;DHT22;9458;50.942;5.074;2024-02-04T06:06:14;10.60;99.90
18658;DHT22;9458;50.942;5.074;2024-02-04T06:08:43;10.50;99.90
18658;DHT22;9458;50.942;5.074;2024-02-04T06:11:10;10.50;99.90
18658;DHT22;9458;50.942;5.074;2024-02-04T06:13:38;10.50;99.90
18658;DHT22;9458;50.942;5.074;2024-02-04T06:16:06;10.50;99.90
18658;DHT22;9458;50.942;5.074;2024-02-04T06:18:33;10.60;99.90
18658;DHT22;9458;50.942;5.074;2024-02-04T06:21:02;10.60;99.90
18658;DHT22;9458;50.942;5.074;2024-02-04T06:23:29;10.60;99.90
18658;DHT22;9458;50.942;5.074;2024-02-04T06:25:57;10.60;99.90
18658;DHT22;9458;50.942;5.074;2024-02-04T06:28:24;10.60;99.90
18658;DHT22;9458;50.942;5.074;2024-02-04T06:30:51;10.60;99.90
18658;DHT22;9458;50.942;5.074;2024-02-04T06:33:18;10.60;99.90
18658;DHT22;9458;50.942;5.074;2024-02-04T06:35:45;10.60;99.90
18658;DHT22;9458;50.942;5.074;2024-02-04T06:38:12;10.70;99.90
18658;DHT22;9458;50.942;5.074;2024-02-04T06:40:39;10.60;99.90
18658;DHT22;9458;50.942;5.074;2024-02-04T06:43:07;10.60;99.90
18658;DHT22;9458;50.942;5.074;2024-02-04T06:45:35;10.60;99.90
18658;DHT22;9458;50.942;5.074;2024-02-04T06:48:02;10.60;99.90
18658;DHT22;9458;50.942;5.074;2024-02-04T06:50:29;10.60;99.90
18658;DHT22;9458;50.942;5.074;2024-02-04T06:52:56;10.60;99.90
18658;DHT22;9458;50.942;5.074;2024-02-04T06:55:24;10.60;99.90
18658;DHT22;9458;50.942;5.074;2024-02-04T06:57:51;10.60;99.90
18658;DHT22;9458;50.942;5.074;2024-02-04T07:00:20;10.60;99.90
18658;DHT22;9458;50.942;5.074;2024-02-04T07:02:47;10.60;99.90
18658;DHT22;9458;50.942;5.074;2024-02-04T07:05:14;10.50;99.90
18658;DHT22;9458;50.942;5.074;2024-02-04T07:07:41;10.60;99.90
18658;DHT22;9458;50.942;5.074;2024-02-04T07:10:08;10.60;99.90
18658;DHT22;9458;50.942;5.074;2024-02-04T07:12:35;10.60;99.90
18658;DHT22;9458;50.942;5.074;2024-02-04T07:15:03;10.60;99.90
18658;DHT22;9458;50.942;5.074;2024-02-04T07:17:31;10.60;99.90
18658;DHT22;9458;50.942;5.074;2024-02-04T07:19:59;10.60;99.90
18658;DHT22;9458;50.942;5.074;2024-02-04T07:22:26;10.60;99.90
18658;DHT22;9458;50.942;5.074;2024-02-04T07:24:54;10.60;99.90
18658;DHT22;9458;50.942;5.074;2024-02-04T07:27:21;10.60;99.90
18658;DHT22;9458;50.942;5.074;2024-02-04T07:29:47;10.40;99.90
18658;DHT22;9458;50.942;5.074;2024-02-04T07:32:14;10.60;99.90
18658;DHT22;9458;50.942;5.074;2024-02-04T07:34:43;10.60;99.90
18658;DHT22;9458;50.942;5.074;2024-02-04T07:37:10;10.60;99.90
18658;DHT22;9458;50.942;5.074;2024-02-04T07:39:38;10.60;99.90
18658;DHT22;9458;50.942;5.074;2024-02-04T07:42:04;10.60;99.90
18658;DHT22;9458;50.942;5.074;2024-02-04T07:44:31;10.60;99.90
18658;DHT22;9458;50.942;5.074;2024-02-04T07:46:58;10.60;99.90
18658;DHT22;9458;50.942;5.074;2024-02-04T07:49:25;10.70;99.90
18658;DHT22;9458;50.942;5.074;2024-02-04T07:51:54;10.70;99.90
18658;DHT22;9458;50.942;5.074;2024-02-04T07:54:20;10.70;99.90
18658;DHT22;9458;50.942;5.074;2024-02-04T07:56:47;10.60;99.90
18658;DHT22;9458;50.942;5.074;2024-02-04T07:59:14;10.70;99.90
18658;DHT22;9458;50.942;5.074;2024-02-04T08:01:41;10.70;99.90
18658;DHT22;9458;50.942;5.074;2024-02-04T08:04:08;10.70;99.90
18658;DHT22;9458;50.942;5.074;2024-02-04T08:06:36;10.70;99.90
18658;DHT22;9458;50.942;5.074;2024-02-04T08:09:04;10.70;99.90
18658;DHT22;9458;50.942;5.074;2024-02-04T08:11:32;10.70;99.90
18658;DHT22;9458;50.942;5.074;2024-02-04T08:13:58;10.80;99.90
18658;DHT22;9458;50.942;5.074;2024-02-04T08:16:25;10.70;99.90
18658;DHT22;9458;50.942;5.074;2024-02-04T08:18:53;10.70;99.90
18658;DHT22;9458;50.942;5.074;2024-02-04T08:21:20;10.70;99.90
18658;DHT22;9458;50.942;5.074;2024-02-04T08:23:47;10.80;99.90
18658;DHT22;9458;50.942;5.074;2024-02-04T08:26:16;10.80;99.90
18658;DHT22;9458;50.942;5.074;2024-02-04T08:28:43;10.90;99.90
18658;DHT22;9458;50.942;5.074;2024-02-04T08:31:09;10.90;99.90
18658;DHT22;9458;50.942;5.074;2024-02-04T08:33:36;10.90;99.90
18658;DHT22;9458;50.942;5.074;2024-02-04T08:36:03;10.90;99.90
18658;DHT22;9458;50.942;5.074;2024-02-04T08:38:31;10.90;99.90
18658;DHT22;9458;50.942;5.074;2024-02-04T08:40:58;10.90;99.90
18658;DHT22;9458;50.942;5.074;2024-02-04T08:43:27;10.90;99.90
18658;DHT22;9458;50.942;5.074;2024-02-04T08:45:54;11.00;99.90
18658;DHT22;9458;50.942;5.074;2024-02-04T08:48:21;11.00;99.90
18658;DHT22;9458;50.942;5.074;2024-02-04T08:50:48;11.10;99.90
18658;DHT22;9458;50.942;5.074;2024-02-04T08:53:15;11.00;99.90
18658;DHT22;9458;50.942;5.074;2024-02-04T08:55:42;11.10;99.90
18658;DHT22;9458;50.942;5.074;2024-02-04T08:58:09;10.90;99.90
18658;DHT22;9458;50.942;5.074;2024-02-04T09:00:38;11.10;99.90
18658;DHT22;9458;50.942;5.074;2024-02-04T09:03:05;11.00;99.90
18658;DHT22;9458;50.942;5.074;2024-02-04T09:05:31;11.00;99.90
18658;DHT22;9458;50.942;5.074;2024-02-04T09:07:58;11.10;99.90
18658;DHT22;9458;50.942;5.074;2024-02-04T09:10:26;11.10;99.90
18658;DHT22;9458;50.942;5.074;2024-02-04T09:12:53;11.20;99.90
18658;DHT22;9458;50.942;5.074;2024-02-04T09:15:20;11.20;99.90
18658;DHT22;9458;50.942;5.074;2024-02-04T09:17:48;11.20;99.90
18658;DHT22;9458;50.942;5.074;2024-02-04T09:20:16;11.30;99.90
18658;DHT22;9458;50.942;5.074;2024-02-04T09:22:43;11.40;99.90
18658;DHT22;9458;50.942;5.074;2024-02-04T09:25:10;11.40;99.90
18658;DHT22;9458;50.942;5.074;2024-02-04T09:27:37;11.40;99.90
18658;DHT22;9458;50.942;5.074;2024-02-04T09:30:05;11.30;99.90
18658;DHT22;9458;50.942;5.074;2024-02-04T09:32:32;11.30;99.90
18658;DHT22;9458;50.942;5.074;2024-02-04T09:35:01;11.20;99.90
18658;DHT22;9458;50.942;5.074;2024-02-04T09:37:28;11.20;99.90
18658;DHT22;9458;50.942;5.074;2024-02-04T09:39:55;11.20;99.90
18658;DHT22;9458;50.942;5.074;2024-02-04T09:42:22;11.20;99.90
18658;DHT22;9458;50.942;5.074;2024-02-04T09:44:49;11.20;99.90
18658;DHT22;9458;50.942;5.074;2024-02-04T09:47:16;11.20;99.90
18658;DHT22;9458;50.942;5.074;2024-02-04T09:49:44;11.30;99.90
18658;DHT22;9458;50.942;5.074;2024-02-04T09:52:12;11.40;99.90
18658;DHT22;9458;50.942;5.074;2024-02-04T09:54:41;11.40;99.90
18658;DHT22;9458;50.942;5.074;2024-02-04T09:57:10;11.40;99.90
18658;DHT22;9458;50.942;5.074;2024-02-04T09:59:38;11.40;99.90
18658;DHT22;9458;50.942;5.074;2024-02-04T10:02:04;11.30;99.90
18658;DHT22;9458;50.942;5.074;2024-02-04T10:04:32;11.40;99.90
18658;DHT22;9458;50.942;5.074;2024-02-04T10:06:59;11.50;99.90
18658;DHT22;9458;50.942;5.074;2024-02-04T10:09:28;11.50;99.90
18658;DHT22;9458;50.942;5.074;2024-02-04T10:11:55;11.50;99.90
18658;DHT22;9458;50.942;5.074;2024-02-04T10:14:22;11.50;99.90
18658;DHT22;9458;50.942;5.074;2024-02-04T10:16:49;11.50;99.90
18658;DHT22;9458;50.942;5.074;2024-02-04T10:19:16;11.50;99.90
18658;DHT22;9458;50.942;5.074;2024-02-04T10:21:43;11.40;99.90
18658;DHT22;9458;50.942;5.074;2024-02-04T10:24:10;11.40;99.90
18658;DHT22;9458;50.942;5.074;2024-02-04T10:26:38;11.50;99.90
18658;DHT22;9458;50.942;5.074;2024-02-04T10:29:08;11.50;99.90
18658;DHT22;9458;50.942;5.074;2024-02-04T10:31:35;11.50;99.90
18658;DHT22;9458;50.942;5.074;2024-02-04T10:34:02;11.40;99.90
18658;DHT22;9458;50.942;5.074;2024-02-04T10:36:32;11.40;99.90
18658;DHT22;9458;50.942;5.074;2024-02-04T10:38:59;11.40;99.90
18658;DHT22;9458;50.942;5.074;2024-02-04T10:41:26;11.40;99.90
18658;DHT22;9458;50.942;5.074;2024-02-04T10:43:58;11.40;99.90
18658;DHT22;9458;50.942;5.074;2024-02-04T10:46:25;11.40;99.90
18658;DHT22;9458;50.942;5.074;2024-02-04T10:48:55;11.40;99.90
18658;DHT22;9458;50.942;5.074;2024-02-04T10:51:23;11.40;99.90
18658;DHT22;9458;50.942;5.074;2024-02-04T10:53:50;11.40;99.90
18658;DHT22;9458;50.942;5.074;2024-02-04T10:56:19;11.50;99.90
18658;DHT22;9458;50.942;5.074;2024-02-04T10:58:47;11.40;99.90
18658;DHT22;9458;50.942;5.074;2024-02-04T11:01:15;11.50;99.90
18658;DHT22;9458;50.942;5.074;2024-02-04T11:03:43;11.50;99.90
18658;DHT22;9458;50.942;5.074;2024-02-04T11:06:11;11.50;99.90
18658;DHT22;9458;50.942;5.074;2024-02-04T11:08:39;11.50;99.90
18658;DHT22;9458;50.942;5.074;2024-02-04T11:11:06;11.50;99.90
18658;DHT22;9458;50.942;5.074;2024-02-04T11:13:32;11.60;99.90
18658;DHT22;9458;50.942;5.074;2024-02-04T11:16:01;11.60;99.90
18658;DHT22;9458;50.942;5.074;2024-02-04T11:18:35;11.50;99.90
18658;DHT22;9458;50.942;5.074;2024-02-04T11:21:11;11.50;99.90
18658;DHT22;9458;50.942;5.074;2024-02-04T11:23:44;11.50;99.90
18658;DHT22;9458;50.942;5.074;2024-02-04T11:26:15;11.60;99.90
18658;DHT22;9458;50.942;5.074;2024-02-04T11:28:43;11.60;99.90
18658;DHT22;9458;50.942;5.074;2024-02-04T11:31:13;11.70;99.90
18658;DHT22;9458;50.942;5.074;2024-02-04T11:33:41;11.70;99.90
18658;DHT22;9458;50.942;5.074;2024-02-04T11:36:12;11.80;99.90
18658;DHT22;9458;50.942;5.074;2024-02-04T11:38:39;11.80;99.90
18658;DHT22;9458;50.942;5.074;2024-02-04T11:41:06;11.80;99.90
18658;DHT22;9458;50.942;5.074;2024-02-04T11:43:34;11.80;99.90
18658;DHT22;9458;50.942;5.074;2024-02-04T11:46:02;11.80;99.90
18658;DHT22;9458;50.942;5.074;2024-02-04T11:48:29;11.80;99.90
18658;DHT22;9458;50.942;5.074;2024-02-04T11:50:59;11.70;99.90
18658;DHT22;9458;50.942;5.074;2024-02-04T11:53:26;11.70;99.90
18658;DHT22;9458;50.942;5.074;2024-02-04T11:55:57;11.70;99.90
18658;DHT22;9458;50.942;5.074;2024-02-04T11:58:25;11.70;99.90
18658;DHT22;9458;50.942;5.074;2024-02-04T12:00:52;11.70;99.90
18658;DHT22;9458;50.942;5.074;2024-02-04T12:03:29;11.60;99.90
18658;DHT22;9458;50.942;5.074;2024-02-04T12:05:56;11.60;99.90
18658;DHT22;9458;50.942;5.074;2024-02-04T12:08:25;11.70;99.90
18658;DHT22;9458;50.942;5.074;2024-02-04T12:10:53;11.70;99.90
18658;DHT22;9458;50.942;5.074;2024-02-04T12:13:20;11.70;99.90
18658;DHT22;9458;50.942;5.074;2024-02-04T12:15:47;11.70;99.90
18658;DHT22;9458;50.942;5.074;2024-02-04T12:18:14;11.70;99.90
18658;DHT22;9458;50.942;5.074;2024-02-04T12:20:45;11.70;99.90
18658;DHT22;9458;50.942;5.074;2024-02-04T12:23:13;11.70;99.90
18658;DHT22;9458;50.942;5.074;2024-02-04T12:25:42;11.80;99.90
18658;DHT22;9458;50.942;5.074;2024-02-04T12:28:09;11.80;99.90
18658;DHT22;9458;50.942;5.074;2024-02-04T12:30:36;11.80;99.90
18658;DHT22;9458;50.942;5.074;2024-02-04T12:33:03;11.70;99.90
18658;DHT22;9458;50.942;5.074;2024-02-04T12:35:31;11.70;99.90
18658;DHT22;9458;50.942;5.074;2024-02-04T12:37:58;11.70;99.90
18658;DHT22;9458;50.942;5.074;2024-02-04T12:40:28;11.80;99.90
18658;DHT22;9458;50.942;5.074;2024-02-04T12:42:57;11.80;99.90
18658;DHT22;9458;50.942;5.074;2024-02-04T12:45:25;11.70;99.90
18658;DHT22;9458;50.942;5.074;2024-02-04T12:47:53;11.70;99.90
18658;DHT22;9458;50.942;5.074;2024-02-04T12:50:20;11.70;99.90
18658;DHT22;9458;50.942;5.074;2024-02-04T12:52:47;11.70;99.90
18658;DHT22;9458;50.942;5.074;2024-02-04T12:55:22;11.60;99.90
18658;DHT22;9458;50.942;5.074;2024-02-04T12:57:49;11.60;99.90
18658;DHT22;9458;50.942;5.074;2024-02-04T13:00:18;11.60;99.90
18658;DHT22;9458;50.942;5.074;2024-02-04T13:02:48;11.60;99.90
18658;DHT22;9458;50.942;5.074;2024-02-04T13:05:21;11.70;99.90
18658;DHT22;9458;50.942;5.074;2024-02-04T13:07:53;11.70;99.90
18658;DHT22;9458;50.942;5.074;2024-02-04T13:10:21;11.60;99.90
18658;DHT22;9458;50.942;5.074;2024-02-04T13:12:57;11.60;99.90
18658;DHT22;9458;50.942;5.074;2024-02-04T13:15:26;11.60;99.90
18658;DHT22;9458;50.942;5.074;2024-02-04T13:17:53;11.60;99.90
18658;DHT22;9458;50.942;5.074;2024-02-04T13:20:19;11.70;99.90
18658;DHT22;9458;50.942;5.074;2024-02-04T13:22:46;11.70;99.90
18658;DHT22;9458;50.942;5.074;2024-02-04T13:25:13;11.60;99.90
18658;DHT22;9458;50.942;5.074;2024-02-04T13:27:40;11.60;99.90
18658;DHT22;9458;50.942;5.074;2024-02-04T13:30:08;11.70;99.90
18658;DHT22;9458;50.942;5.074;2024-02-04T13:32:39;11.70;99.90
18658;DHT22;9458;50.942;5.074;2024-02-04T13:35:07;11.70;99.90
18658;DHT22;9458;50.942;5.074;2024-02-04T13:37:35;11.80;99.90
18658;DHT22;9458;50.942;5.074;2024-02-04T13:40:03;11.70;99.90
18658;DHT22;9458;50.942;5.074;2024-02-04T13:42:31;11.70;99.90
18658;DHT22;9458;50.942;5.074;2024-02-04T13:45:00;11.60;99.90
18658;DHT22;9458;50.942;5.074;2024-02-04T13:47:28;11.70;99.90
18658;DHT22;9458;50.942;5.074;2024-02-04T13:49:57;11.70;99.90
18658;DHT22;9458;50.942;5.074;2024-02-04T13:52:24;11.80;99.90
18658;DHT22;9458;50.942;5.074;2024-02-04T13:54:51;11.80;99.90
18658;DHT22;9458;50.942;5.074;2024-02-04T13:57:18;11.70;99.90
18658;DHT22;9458;50.942;5.074;2024-02-04T13:59:45;11.70;99.90
18658;DHT22;9458;50.942;5.074;2024-02-04T14:02:12;11.60;99.90
18658;DHT22;9458;50.942;5.074;2024-02-04T14:04:39;11.60;99.90
18658;DHT22;9458;50.942;5.074;2024-02-04T14:07:07;11.70;99.90
18658;DHT22;9458;50.942;5.074;2024-02-04T14:09:34;11.60;99.90
18658;DHT22;9458;50.942;5.074;2024-02-04T14:12:01;11.60;99.90
18658;DHT22;9458;50.942;5.074;2024-02-04T14:14:29;11.60;99.90
18658;DHT22;9458;50.942;5.074;2024-02-04T14:16:57;11.60;99.90
18658;DHT22;9458;50.942;5.074;2024-02-04T14:19:24;11.60;99.90
18658;DHT22;9458;50.942;5.074;2024-02-04T14:21:52;11.60;99.90
18658;DHT22;9458;50.942;5.074;2024-02-04T14:24:21;11.60;99.90
18658;DHT22;9458;50.942;5.074;2024-02-04T14:26:48;11.70;99.90
18658;DHT22;9458;50.942;5.074;2024-02-04T14:29:15;11.70;99.90
18658;DHT22;9458;50.942;5.074;2024-02-04T14:31:42;11.80;99.90
18658;DHT22;9458;50.942;5.074;2024-02-04T14:34:10;11.80;99.90
18658;DHT22;9458;50.942;5.074;2024-02-04T14:36:37;11.80;99.90
18658;DHT22;9458;50.942;5.074;2024-02-04T14:39:05;11.70;99.90
18658;DHT22;9458;50.942;5.074;2024-02-04T14:41:36;11.70;99.90
18658;DHT22;9458;50.942;5.074;2024-02-04T14:44:03;11.70;99.90
18658;DHT22;9458;50.942;5.074;2024-02-04T14:46:30;11.70;99.90
18658;DHT22;9458;50.942;5.074;2024-02-04T14:48:57;11.70;99.90
18658;DHT22;9458;50.942;5.074;2024-02-04T14:51:24;11.80;99.90
18658;DHT22;9458;50.942;5.074;2024-02-04T14:53:51;11.80;99.90
18658;DHT22;9458;50.942;5.074;2024-02-04T14:56:18;11.70;99.90
18658;DHT22;9458;50.942;5.074;2024-02-04T14:58:47;11.70;99.90
18658;DHT22;9458;50.942;5.074;2024-02-04T15:01:14;11.60;99.90
18658;DHT22;9458;50.942;5.074;2024-02-04T15:03:41;11.60;99.90
18658;DHT22;9458;50.942;5.074;2024-02-04T15:06:08;11.60;99.90
18658;DHT22;9458;50.942;5.074;2024-02-04T15:08:35;11.50;99.90
18658;DHT22;9458;50.942;5.074;2024-02-04T15:11:02;11.50;99.90
18658;DHT22;9458;50.942;5.074;2024-02-04T15:13:29;11.50;99.90
18658;DHT22;9458;50.942;5.074;2024-02-04T15:15:58;11.60;99.90
18658;DHT22;9458;50.942;5.074;2024-02-04T15:18:26;11.60;99.90
18658;DHT22;9458;50.942;5.074;2024-02-04T15:20:53;11.50;99.90
18658;DHT22;9458;50.942;5.074;2024-02-04T15:23:21;11.50;99.90
18658;DHT22;9458;50.942;5.074;2024-02-04T15:25:48;11.60;99.90
18658;DHT22;9458;50.942;5.074;2024-02-04T15:28:15;11.50;99.90
18658;DHT22;9458;50.942;5.074;2024-02-04T15:30:42;11.50;99.90
18658;DHT22;9458;50.942;5.074;2024-02-04T15:33:12;11.50;99.90
18658;DHT22;9458;50.942;5.074;2024-02-04T15:35:40;11.50;99.90
18658;DHT22;9458;50.942;5.074;2024-02-04T15:38:07;11.50;99.90
18658;DHT22;9458;50.942;5.074;2024-02-04T15:40:35;11.50;99.90
18658;DHT22;9458;50.942;5.074;2024-02-04T15:43:02;11.50;99.90
18658;DHT22;9458;50.942;5.074;2024-02-04T15:45:29;11.50;99.90
18658;DHT22;9458;50.942;5.074;2024-02-04T15:47:57;11.50;99.90